This is the latest recevied weather packets stored in our database for station/object LU3HGB-WX. If no packets are shown the sender has not sent any weather packets the latest 1 day(s).
| Time | Temp. | Humidity | Pressure | Rain* | Wind** | Luminosity | Snow |
|---|---|---|---|---|---|---|---|
| 1778071060 | 15° C | 88% | 1010 hPa | 0 mm | - | 228 W/m² | - |
| 1778069860 | 13.33° C | 95% | 1010 hPa | 0 mm | - | 162 W/m² | - |
| 1778069260 | 11.67° C | 95% | 1010 hPa | 0 mm | - | 134 W/m² | - |
| 1778068960 | 11.11° C | 95% | 1010 hPa | 0 mm | - | 117 W/m² | - |
| 1778068359 | 10.56° C | 95% | 1010 hPa | 0 mm | - | 92 W/m² | - |
| 1778067160 | 8.89° C | 95% | 1010 hPa | 0 mm | - | 31 W/m² | - |
| 1778065960 | 8.33° C | 95% | 1010 hPa | 0 mm | - | 17 W/m² | - |
| 1778065660 | 8.33° C | 95% | 1010 hPa | 0 mm | - | 13 W/m² | - |
| 1778065060 | 8.33° C | 95% | 1010 hPa | 0 mm | - | 6 W/m² | - |
| 1778063559 | 8.89° C | 95% | 1010 hPa | 0 mm | - | 0 W/m² | - |
| 1778062960 | 8.89° C | 95% | 1010 hPa | 0 mm | - | 0 W/m² | - |
| 1778062659 | 8.89° C | 95% | 1010 hPa | 0 mm | - | 0 W/m² | - |
| 1778059659 | 10° C | 95% | 1010 hPa | 0 mm | - | 0 W/m² | - |
| 1778057560 | 10.56° C | 95% | 1010 hPa | 0 mm | - | 0 W/m² | - |
| 1778057259 | 10° C | 95% | 1011 hPa | 0 mm | - | 0 W/m² | - |
| 1778056359 | 9.44° C | 95% | 1011 hPa | 0 mm | - | 0 W/m² | - |
| 1778055760 | 10° C | 95% | 1011 hPa | 0 mm | - | 0 W/m² | - |
| 1778055160 | 10° C | 95% | 1011 hPa | 0 mm | - | 0 W/m² | - |
| 1778054561 | 10.56° C | 95% | 1011 hPa | 0 mm | - | 0 W/m² | - |
| 1778054259 | 10.56° C | 95% | 1011 hPa | 0 mm | - | 0 W/m² | - |
| 1778053359 | 11.11° C | 95% | 1011 hPa | 0 mm | - | 0 W/m² | - |
| 1778052459 | 11.67° C | 95% | 1012 hPa | 0 mm | - | 0 W/m² | - |
| 1778051860 | 10.56° C | 95% | 1012 hPa | 0 mm | - | 0 W/m² | - |
| 1778051559 | 10.56° C | 95% | 1012 hPa | 0 mm | - | 0 W/m² | - |
| 1778051260 | 10.56° C | 95% | 1012 hPa | 0 mm | - | 0 W/m² | - |
* Rain latest hour (hover to see other rain measurements)
** Current wind speed in m/s (hover to see current wind gust speed)